Time;durP1;ratioP1;P1;durP2;ratioP2;P2;SDS_P1;SDS_P2;PMS_P1;PMS_P2;Temp;Humidity;BMP_temperature;BMP_pressure;BME280_temperature;BME280_humidity;BME280_pressure;Samples;Min_cycle;Max_cycle;Signal;HPM_P1;HPM_P2
2023/09/02 16:11:39;;;;;;;;;;;;;;;27.42;59.30;98681.59;5095880;27;19928;-90
2023/09/02 16:20:52;;;;;;;;;;;;;;;30.35;44.46;98688.03;5104639;27;19925;-86
2023/09/02 16:23:18;;;;;;;;;;;;;;;33.90;36.18;98689.50;5081441;28;19977;-88
2023/09/02 16:25:44;;;;;;;;;;;;;;;35.62;33.30;98686.78;5086816;28;19952;-87
2023/09/02 16:28:12;;;;;;;;;;;;;;;36.42;31.78;98683.09;5082522;28;20380;-88
2023/09/02 16:30:38;;;;;;;;;;;;;;;36.89;30.12;98684.59;5082154;28;19931;-91
2023/09/02 16:33:04;;;;;;;;;;;;;;;36.88;30.37;98691.59;5085680;28;19928;-92
2023/09/02 16:35:31;;;;;;;;;;;;;;;36.86;30.80;98685.59;5090442;28;20031;-90
2023/09/02 16:37:57;;;;;;;;;;;;;;;36.94;29.70;98692.47;5088210;28;19928;-91
2023/09/02 16:40:26;;;;;;;;;;;;;;;36.71;30.61;98686.50;5084885;28;19928;-91
2023/09/02 16:42:52;;;;;;;;;;;;;;;36.42;31.16;98688.81;5084834;28;19965;-92
2023/09/02 16:45:18;;;;;;;;;;;;;;;36.54;30.47;98688.47;5089240;28;20391;-92
2023/09/02 16:47:45;;;;;;;;;;;;;;;36.53;30.21;98688.94;5088779;28;20032;-91
2023/09/02 16:50:15;;;;;;;;;;;;;;;36.43;30.79;98690.41;5087772;28;19929;-92
2023/09/02 16:52:42;;;;;;;;;;;;;;;36.34;31.06;98679.88;5087189;28;20442;-91
2023/09/02 16:55:09;;;;;;;;;;;;;;;36.19;29.96;98689.88;5086113;28;20380;-90
2023/09/02 16:57:39;;;;;;;;;;;;;;;35.93;31.40;98693.44;5087147;28;19978;-91
2023/09/02 17:00:11;;;;;;;;;;;;;;;35.94;31.08;98697.09;5080249;28;20825;-90
2023/09/02 17:02:45;;;;;;;;;;;;;;;35.99;30.50;98693.53;5084347;28;19920;-92
2023/09/02 17:05:31;;;;;;;;;;;;;;;36.08;30.54;98688.44;5083699;28;19927;-90
2023/09/02 17:07:58;;;;;;;;;;;;;;;36.19;30.68;98695.59;5085387;28;20299;-94
2023/09/02 17:10:27;;;;;;;;;;;;;;;36.11;30.51;98698.09;5085718;28;19924;-94
2023/09/02 17:12:53;;;;;;;;;;;;;;;36.11;30.20;98697.34;5108243;28;19964;-91
2023/09/02 17:15:22;;;;;;;;;;;;;;;36.00;30.40;98700.84;5083548;28;19916;-93
2023/09/02 17:17:49;;;;;;;;;;;;;;;35.98;29.97;98700.56;5089796;28;20011;-92
2023/09/02 17:20:23;;;;;;;;;;;;;;;35.89;31.10;98692.88;5101592;28;19947;-93
2023/09/02 17:22:49;;;;;;;;;;;;;;;35.59;31.03;98697.19;5103572;28;19931;-96
2023/09/02 17:25:16;;;;;;;;;;;;;;;35.54;31.52;98691.38;5110868;28;19920;-95
2023/09/02 17:27:49;;;;;;;;;;;;;;;35.40;31.91;98701.56;5110457;28;19927;-89
2023/09/02 17:30:17;;;;;;;;;;;;;;;35.46;30.58;98704.47;5083624;28;20260;-95
2023/09/02 17:32:43;;;;;;;;;;;;;;;35.53;30.98;98712.66;5097324;28;19916;-92
2023/09/02 17:35:09;;;;;;;;;;;;;;;35.58;30.27;98707.03;5093009;28;19920;-88
2023/09/02 17:37:35;;;;;;;;;;;;;;;35.46;30.66;98708.13;5087769;28;19920;-93
2023/09/02 17:40:02;;;;;;;;;;;;;;;35.06;31.14;98708.81;5091588;28;20421;-89
2023/09/02 17:42:28;;;;;;;;;;;;;;;34.79;31.00;98705.47;5092397;28;19927;-93
2023/09/02 17:44:54;;;;;;;;;;;;;;;34.48;32.43;98723.84;5089507;28;20014;-90
2023/09/02 17:47:20;;;;;;;;;;;;;;;34.03;32.88;98719.31;5088781;28;20072;-93
2023/09/02 17:49:46;;;;;;;;;;;;;;;33.79;33.41;98724.25;5091912;28;20311;-91
2023/09/02 17:52:12;;;;;;;;;;;;;;;34.03;32.91;98725.03;5053286;28;20403;-91
2023/09/02 17:54:38;;;;;;;;;;;;;;;34.37;32.30;98720.00;5092658;28;20402;-88
2023/09/02 17:57:04;;;;;;;;;;;;;;;34.62;31.85;98716.59;5090828;28;19920;-93
2023/09/02 17:59:30;;;;;;;;;;;;;;;34.54;31.61;98724.75;5076520;28;19924;-90
2023/09/02 18:01:57;;;;;;;;;;;;;;;34.21;32.15;98718.41;5072643;28;19999;-91
2023/09/02 18:04:23;;;;;;;;;;;;;;;34.04;31.90;98720.91;5090996;28;19999;-90
2023/09/02 18:06:49;;;;;;;;;;;;;;;33.90;32.58;98713.09;5089009;28;20011;-90
2023/09/02 18:09:15;;;;;;;;;;;;;;;33.81;32.64;98726.59;5093243;28;19935;-91
2023/09/02 18:11:41;;;;;;;;;;;;;;;33.88;32.71;98727.03;5094485;28;20395;-89
2023/09/02 18:14:07;;;;;;;;;;;;;;;34.06;32.30;98741.16;5089453;28;19977;-88
2023/09/02 18:16:33;;;;;;;;;;;;;;;34.22;31.48;98741.97;5085838;28;19920;-94
2023/09/02 18:18:59;;;;;;;;;;;;;;;34.35;31.49;98751.06;5089617;28;19928;-94
2023/09/02 18:21:25;;;;;;;;;;;;;;;34.45;31.59;98749.72;5089379;28;20375;-91
2023/09/02 18:23:51;;;;;;;;;;;;;;;34.45;31.62;98741.16;5089285;28;19973;-93
2023/09/02 18:26:17;;;;;;;;;;;;;;;34.32;32.49;98747.13;5089946;28;19987;-91
2023/09/02 18:28:44;;;;;;;;;;;;;;;34.39;31.31;98746.75;5091253;28;20379;-90
2023/09/02 18:31:10;;;;;;;;;;;;;;;34.40;31.20;98748.31;5091653;28;19920;-87
2023/09/02 18:33:38;;;;;;;;;;;;;;;34.45;30.92;98746.88;5092202;28;19920;-90
2023/09/02 18:36:04;;;;;;;;;;;;;;;34.30;31.70;98755.38;5089910;28;19920;-91
2023/09/02 18:38:30;;;;;;;;;;;;;;;34.07;32.00;98751.28;5089495;28;19920;-93
2023/09/02 18:40:56;;;;;;;;;;;;;;;33.76;32.06;98758.59;5092129;28;20011;-92
2023/09/02 18:43:23;;;;;;;;;;;;;;;33.59;32.28;98754.59;5088122;28;19967;-90
2023/09/02 18:45:49;;;;;;;;;;;;;;;33.73;32.06;98757.50;5091372;28;19920;-89
2023/09/02 18:48:15;;;;;;;;;;;;;;;33.88;31.71;98761.22;5087703;28;20363;-89
2023/09/02 18:50:41;;;;;;;;;;;;;;;33.99;31.58;98763.50;5091556;28;19941;-89
2023/09/02 18:53:07;;;;;;;;;;;;;;;34.05;31.34;98762.38;5089322;28;19928;-89
2023/09/02 18:55:40;;;;;;;;;;;;;;;33.83;31.73;98761.09;5089070;28;19924;-89
2023/09/02 18:58:06;;;;;;;;;;;;;;;33.61;31.50;98761.38;5089296;28;19920;-89
2023/09/02 19:00:32;;;;;;;;;;;;;;;33.55;31.82;98754.78;5084335;28;20414;-89
2023/09/02 19:02:58;;;;;;;;;;;;;;;33.44;31.91;98757.34;5054105;28;20372;-88
2023/09/02 19:05:25;;;;;;;;;;;;;;;33.56;31.34;98756.34;5093618;28;20435;-89
2023/09/02 19:07:51;;;;;;;;;;;;;;;33.65;31.93;98749.81;5090187;28;19963;-92
2023/09/02 19:10:17;;;;;;;;;;;;;;;33.74;30.96;98758.31;5083003;28;19935;-93
2023/09/02 19:12:43;;;;;;;;;;;;;;;33.53;31.68;98762.22;5087603;28;19920;-92
2023/09/02 19:15:09;;;;;;;;;;;;;;;33.02;32.34;98760.22;5085422;28;19927;-93
2023/09/02 19:17:36;;;;;;;;;;;;;;;32.89;32.62;98768.13;5073454;28;19928;-93
2023/09/02 19:20:06;;;;;;;;;;;;;;;33.01;32.23;98764.31;5074595;28;20027;-95
2023/09/02 19:22:40;;;;;;;;;;;;;;;33.14;32.20;98762.06;5085164;28;19928;-93
2023/09/02 19:25:10;;;;;;;;;;;;;;;33.30;31.35;98761.66;5086251;28;19924;-93
2023/09/02 19:27:36;;;;;;;;;;;;;;;33.39;31.61;98761.66;5093140;28;19926;-93
2023/09/02 19:30:02;;;;;;;;;;;;;;;33.34;31.68;98752.97;5087370;28;19959;-89
2023/09/02 19:32:28;;;;;;;;;;;;;;;33.26;31.35;98763.91;5090013;28;19970;-93
2023/09/02 19:34:54;;;;;;;;;;;;;;;33.31;31.64;98762.47;5094987;28;19920;-95
2023/09/02 19:37:20;;;;;;;;;;;;;;;33.06;31.71;98760.03;5086358;28;21727;-95
2023/09/02 19:39:46;;;;;;;;;;;;;;;32.92;31.85;98760.69;5088881;28;19966;-94
2023/09/02 19:42:12;;;;;;;;;;;;;;;32.84;31.70;98753.78;5089906;28;19928;-92
2023/09/02 19:44:38;;;;;;;;;;;;;;;32.93;31.93;98759.44;5088565;28;19981;-92
2023/09/02 19:47:04;;;;;;;;;;;;;;;32.98;31.89;98762.41;5089666;28;19924;-95
2023/09/02 19:49:31;;;;;;;;;;;;;;;32.60;32.18;98754.44;5088968;28;19931;-94
2023/09/02 19:51:57;;;;;;;;;;;;;;;32.63;32.09;98761.22;5087736;28;20280;-92
2023/09/02 19:54:24;;;;;;;;;;;;;;;32.80;32.34;98758.81;5079982;28;20395;-92
2023/09/02 19:56:50;;;;;;;;;;;;;;;32.70;32.76;98767.38;5090143;28;19920;-92
2023/09/02 19:59:16;;;;;;;;;;;;;;;32.68;32.28;98764.22;5084656;28;21775;-92
2023/09/02 20:01:42;;;;;;;;;;;;;;;32.53;32.70;98774.69;5087208;28;19926;-93
2023/09/02 20:04:09;;;;;;;;;;;;;;;32.64;32.65;98768.50;5055534;28;19920;-92
2023/09/02 20:06:35;;;;;;;;;;;;;;;32.81;32.37;98769.75;5087797;28;20011;-91
2023/09/02 20:09:01;;;;;;;;;;;;;;;33.00;31.89;98767.63;5074024;28;20008;-90
2023/09/02 20:11:27;;;;;;;;;;;;;;;33.16;31.72;98775.81;5090980;28;19927;-91
2023/09/02 20:13:53;;;;;;;;;;;;;;;33.29;31.91;98773.53;5090743;28;20298;-91
2023/09/02 20:16:19;;;;;;;;;;;;;;;33.30;31.82;98786.53;5088002;28;19919;-92
2023/09/02 20:18:45;;;;;;;;;;;;;;;33.28;30.82;98780.53;5084399;28;19928;-90
2023/09/02 20:21:11;;;;;;;;;;;;;;;32.98;30.92;98773.78;5083145;28;20023;-91
2023/09/02 20:23:37;;;;;;;;;;;;;;;32.61;31.93;98775.94;5084624;28;19920;-91
2023/09/02 20:26:10;;;;;;;;;;;;;;;32.79;31.86;98774.31;5073111;28;20402;-92
2023/09/02 20:28:36;;;;;;;;;;;;;;;33.01;31.47;98783.41;5083589;28;20574;-92
2023/09/02 20:31:02;;;;;;;;;;;;;;;33.16;31.16;98782.31;5081818;28;19989;-92
2023/09/02 20:33:28;;;;;;;;;;;;;;;33.28;31.70;98780.53;5080862;28;19920;-91
2023/09/02 20:35:56;;;;;;;;;;;;;;;32.77;31.70;98771.16;5083114;28;19950;-90
2023/09/02 20:38:22;;;;;;;;;;;;;;;32.52;32.13;98783.69;5070264;28;19934;-91
2023/09/02 20:40:51;;;;;;;;;;;;;;;32.51;32.37;98785.72;5089089;28;20333;-91
2023/09/02 20:43:17;;;;;;;;;;;;;;;32.31;33.29;98787.44;5080494;28;20001;-91
2023/09/02 20:45:43;;;;;;;;;;;;;;;32.26;33.33;98788.88;5083149;28;19928;-91
2023/09/02 20:48:09;;;;;;;;;;;;;;;32.29;33.45;98787.94;5068824;28;20019;-91
2023/09/02 20:50:39;;;;;;;;;;;;;;;32.32;33.49;98784.16;5080786;28;20435;-91
2023/09/02 20:53:05;;;;;;;;;;;;;;;32.54;33.11;98781.94;5058146;28;19931;-91
2023/09/02 20:55:32;;;;;;;;;;;;;;;32.84;32.19;98776.53;5084802;28;20391;-90
2023/09/02 20:57:58;;;;;;;;;;;;;;;33.03;32.49;98783.75;5063430;28;19939;-91
2023/09/02 21:00:24;;;;;;;;;;;;;;;33.06;32.00;98786.44;5086753;28;19935;-90
2023/09/02 21:02:54;;;;;;;;;;;;;;;33.06;32.14;98788.50;5087617;28;19970;-91
2023/09/02 21:05:20;;;;;;;;;;;;;;;33.19;31.76;98795.56;5086282;28;19923;-91
2023/09/02 21:07:48;;;;;;;;;;;;;;;33.19;31.64;98804.09;5096994;28;19963;-91
2023/09/02 21:10:14;;;;;;;;;;;;;;;33.11;32.05;98793.53;5094327;28;19931;-90
2023/09/02 21:12:40;;;;;;;;;;;;;;;32.85;32.30;98795.16;5088010;28;20000;-92
2023/09/02 21:15:08;;;;;;;;;;;;;;;32.93;32.11;98802.88;5091088;28;19916;-91
2023/09/02 21:17:34;;;;;;;;;;;;;;;33.14;31.85;98807.59;5092593;28;19924;-91
2023/09/02 21:20:03;;;;;;;;;;;;;;;33.29;31.53;98797.13;5094501;28;19924;-91
2023/09/02 21:22:32;;;;;;;;;;;;;;;33.43;31.20;98810.66;5095923;28;20265;-90
2023/09/02 21:24:58;;;;;;;;;;;;;;;33.43;31.54;98804.97;5093081;28;20641;-91
2023/09/02 21:27:24;;;;;;;;;;;;;;;33.41;31.61;98803.88;5083357;28;19927;-91
2023/09/02 21:29:50;;;;;;;;;;;;;;;33.06;32.13;98805.56;5090279;28;19924;-91
2023/09/02 21:32:16;;;;;;;;;;;;;;;33.05;31.99;98804.00;5088544;28;21227;-92
2023/09/02 21:34:42;;;;;;;;;;;;;;;33.27;31.01;98807.41;5089703;28;19931;-91
2023/09/02 21:37:08;;;;;;;;;;;;;;;33.38;30.94;98817.00;5074042;28;19920;-91
2023/09/02 21:39:34;;;;;;;;;;;;;;;33.44;31.41;98806.53;5094207;28;19920;-91
2023/09/02 21:42:00;;;;;;;;;;;;;;;33.54;30.97;98821.53;5076781;28;20020;-91
2023/09/02 21:44:26;;;;;;;;;;;;;;;33.23;31.11;98810.44;5090993;28;20040;-91
2023/09/02 21:46:52;;;;;;;;;;;;;;;33.24;30.98;98808.34;5093359;28;19928;-91
2023/09/02 21:49:18;;;;;;;;;;;;;;;33.38;30.47;98804.81;5090011;28;19924;-91
2023/09/02 21:51:44;;;;;;;;;;;;;;;33.46;30.75;98810.97;5094823;28;20352;-91
2023/09/02 21:54:10;;;;;;;;;;;;;;;33.50;30.79;98812.38;5093672;28;20014;-92
2023/09/02 21:56:36;;;;;;;;;;;;;;;33.12;30.69;98812.97;5074069;28;19920;-91
2023/09/02 21:59:02;;;;;;;;;;;;;;;32.99;30.97;98811.56;5093249;28;19973;-92
2023/09/02 22:01:28;;;;;;;;;;;;;;;32.75;31.16;98811.44;5090708;28;20348;-91
2023/09/02 22:03:54;;;;;;;;;;;;;;;32.60;31.39;98804.84;5093306;28;19923;-91
2023/09/02 22:06:20;;;;;;;;;;;;;;;32.69;30.88;98802.00;5091293;28;20295;-91
2023/09/02 22:08:47;;;;;;;;;;;;;;;32.74;31.58;98798.50;5090264;28;20069;-91
2023/09/02 22:11:14;;;;;;;;;;;;;;;32.67;30.99;98804.53;5093065;28;19922;-91
2023/09/02 22:13:41;;;;;;;;;;;;;;;32.80;30.96;98802.28;5094185;28;19921;-90
2023/09/02 22:16:07;;;;;;;;;;;;;;;32.94;30.55;98798.78;5092246;28;19940;-91
2023/09/02 22:18:33;;;;;;;;;;;;;;;33.02;30.32;98794.38;5074124;28;19958;-91
2023/09/02 22:21:00;;;;;;;;;;;;;;;33.03;30.62;98797.97;5093614;28;19920;-91
2023/09/02 22:23:30;;;;;;;;;;;;;;;32.99;30.63;98795.28;5092984;28;20289;-91
2023/09/02 22:26:01;;;;;;;;;;;;;;;33.01;29.88;98789.94;5092867;28;20341;-90
2023/09/02 22:28:27;;;;;;;;;;;;;;;33.00;30.09;98782.63;5090125;28;19942;-91
2023/09/02 22:30:54;;;;;;;;;;;;;;;32.82;30.37;98784.72;5090924;28;19972;-91
2023/09/02 22:33:20;;;;;;;;;;;;;;;32.47;31.31;98787.91;5087287;28;19920;-91
2023/09/02 22:35:48;;;;;;;;;;;;;;;32.28;31.65;98791.25;5091390;28;19920;-92
2023/09/02 22:38:14;;;;;;;;;;;;;;;32.49;30.89;98793.94;5074524;28;19920;-93
2023/09/02 22:40:40;;;;;;;;;;;;;;;32.54;30.61;98796.16;5092392;28;19935;-92
2023/09/02 22:43:06;;;;;;;;;;;;;;;32.60;30.64;98794.25;5093125;28;19927;-91
2023/09/02 22:45:34;;;;;;;;;;;;;;;32.72;30.59;98789.66;5089911;28;20015;-91
2023/09/02 22:48:00;;;;;;;;;;;;;;;32.84;30.13;98788.66;5094408;28;19920;-90
2023/09/02 22:50:26;;;;;;;;;;;;;;;32.86;30.15;98791.81;5086400;28;20405;-92
2023/09/02 22:52:52;;;;;;;;;;;;;;;32.91;29.91;98788.34;5092689;28;19920;-91
2023/09/02 22:55:18;;;;;;;;;;;;;;;32.68;30.58;98786.19;5093202;28;20337;-91
2023/09/02 22:57:45;;;;;;;;;;;;;;;32.70;30.60;98789.34;5092140;28;20294;-91
2023/09/02 23:00:13;;;;;;;;;;;;;;;32.65;29.95;98792.84;5090477;28;19977;-91
2023/09/02 23:02:39;;;;;;;;;;;;;;;32.38;30.38;98792.81;5094069;28;19966;-91
2023/09/02 23:05:05;;;;;;;;;;;;;;;32.42;30.09;98785.69;5094342;28;19912;-91
2023/09/02 23:07:32;;;;;;;;;;;;;;;32.58;30.11;98788.25;5094328;28;19932;-91
2023/09/02 23:09:59;;;;;;;;;;;;;;;32.65;30.06;98795.69;5092800;28;19920;-91
2023/09/02 23:12:25;;;;;;;;;;;;;;;32.66;29.93;98778.13;5093859;28;19916;-90
2023/09/02 23:14:51;;;;;;;;;;;;;;;32.69;29.91;98779.22;5086607;28;19920;-90
2023/09/02 23:17:18;;;;;;;;;;;;;;;32.73;30.26;98772.13;5092120;28;20422;-91
2023/09/02 23:19:44;;;;;;;;;;;;;;;32.54;30.65;98781.94;5094429;28;19924;-91
2023/09/02 23:22:10;;;;;;;;;;;;;;;32.61;30.76;98775.13;5093735;28;19924;-91
2023/09/02 23:24:36;;;;;;;;;;;;;;;32.59;30.28;98771.97;5093863;28;19924;-91
2023/09/02 23:27:03;;;;;;;;;;;;;;;32.40;30.49;98776.06;5087949;28;20268;-91
2023/09/02 23:29:29;;;;;;;;;;;;;;;32.22;30.40;98761.88;5093938;28;19924;-91
2023/09/02 23:31:55;;;;;;;;;;;;;;;32.32;30.21;98767.09;5073052;28;19966;-91
2023/09/02 23:34:21;;;;;;;;;;;;;;;32.45;30.15;98753.47;5071073;28;19928;-91
2023/09/02 23:36:47;;;;;;;;;;;;;;;32.60;29.78;98751.59;5085471;28;19920;-91
2023/09/02 23:39:13;;;;;;;;;;;;;;;32.58;29.82;98747.66;5092169;28;20297;-92
2023/09/02 23:41:39;;;;;;;;;;;;;;;32.69;29.58;98739.41;5091536;28;19920;-92
2023/09/02 23:44:05;;;;;;;;;;;;;;;32.38;30.00;98728.22;5089440;28;19920;-90
2023/09/02 23:46:31;;;;;;;;;;;;;;;31.94;30.51;98730.59;5087953;28;19924;-90
2023/09/02 23:48:57;;;;;;;;;;;;;;;31.76;30.67;98722.06;5089768;28;20406;-91
2023/09/02 23:51:23;;;;;;;;;;;;;;;31.82;30.73;98728.69;5090938;28;19920;-92
2023/09/02 23:53:49;;;;;;;;;;;;;;;31.57;31.37;98722.47;5088009;28;19927;-94
2023/09/02 23:56:16;;;;;;;;;;;;;;;31.56;31.96;98729.41;5092339;28;19916;-91
2023/09/02 23:58:42;;;;;;;;;;;;;;;31.51;31.27;98732.88;5092291;28;19986;-92
